createdAt,value
2019-02-16T00:06:11.037Z,40.17
2019-02-16T00:11:34.727Z,40.07
2019-02-16T00:14:25.743Z,40.25
2019-02-16T00:17:14.843Z,40.36
2019-02-16T00:19:44.968Z,40.42
2019-02-16T00:22:34.004Z,40.39
2019-02-16T00:25:23.114Z,40.47
2019-02-16T00:27:53.473Z,40.57
2019-02-16T00:33:26.930Z,40.54
2019-02-16T00:35:57.008Z,40.56
2019-02-16T00:38:26.984Z,40.74
2019-02-16T00:41:16.064Z,40.81
2019-02-16T00:43:46.212Z,40.78
2019-02-16T00:46:16.174Z,40.53
2019-02-16T00:49:39.976Z,40.52
2019-02-16T00:51:57.393Z,40.69
2019-02-16T00:54:46.802Z,40.79
2019-02-16T00:57:19.171Z,41.00
2019-02-16T00:59:49.193Z,41.24
2019-02-16T01:02:38.822Z,41.41
2019-02-16T01:05:40.377Z,41.41
2019-02-16T01:07:59.806Z,41.25
2019-02-16T01:13:37.666Z,41.17
2019-02-16T01:16:26.750Z,41.46
2019-02-16T01:18:59.484Z,41.76
2019-02-16T01:21:49.671Z,41.96
2019-02-16T01:24:19.786Z,41.93
2019-02-16T01:27:11.352Z,41.96
2019-02-16T01:30:00.165Z,41.99
2019-02-16T01:32:49.322Z,41.97
2019-02-16T01:35:38.375Z,41.85
2019-02-16T01:38:27.517Z,41.77
2019-02-16T01:41:17.293Z,41.83
2019-02-16T01:47:40.789Z,41.88
2019-02-16T01:50:19.662Z,41.87
2019-02-16T01:53:08.341Z,42.04
2019-02-16T01:59:10.842Z,42.24
2019-02-16T02:01:59.890Z,42.45
2019-02-16T02:04:29.945Z,42.63
2019-02-16T02:07:02.197Z,42.66
2019-02-16T02:09:51.135Z,42.71
2019-02-16T02:12:21.259Z,42.70
2019-02-16T02:14:51.772Z,42.77
2019-02-16T02:17:22.148Z,42.80
2019-02-16T02:20:23.092Z,42.69
2019-02-16T02:25:43.546Z,42.42
2019-02-16T02:28:13.618Z,42.70
2019-02-16T02:31:02.776Z,42.82
2019-02-16T02:33:51.879Z,42.81
2019-02-16T02:39:23.585Z,42.54
2019-02-16T02:45:24.191Z,42.64
2019-02-16T02:47:54.254Z,42.61
2019-02-16T02:53:04.636Z,42.67
2019-02-16T02:55:53.600Z,42.77
2019-02-16T02:58:42.616Z,42.87
2019-02-16T03:01:12.647Z,42.98
2019-02-16T03:03:42.736Z,43.03
2019-02-16T03:09:39.676Z,43.09
2019-02-16T03:12:28.791Z,43.08
2019-02-16T03:18:03.600Z,43.05
2019-02-16T03:20:33.761Z,43.06
2019-02-16T03:23:23.240Z,43.09
2019-02-16T03:26:32.241Z,43.13
2019-02-16T03:29:27.353Z,43.11
2019-02-16T03:32:35.474Z,43.08
2019-02-16T03:35:43.625Z,43.18
2019-02-16T03:38:51.738Z,43.25
2019-02-16T03:41:21.719Z,43.18
2019-02-16T03:43:51.723Z,43.11
2019-02-16T03:49:23.366Z,43.01
2019-02-16T03:51:53.518Z,42.78
2019-02-16T03:54:24.535Z,42.60
2019-02-16T03:57:13.525Z,42.65
2019-02-16T03:59:43.501Z,42.86
2019-02-16T04:02:13.615Z,43.00
2019-02-16T04:04:43.961Z,43.07
2019-02-16T04:07:13.913Z,43.12
2019-02-16T04:09:43.868Z,43.14
2019-02-16T04:12:13.926Z,43.14
2019-02-16T04:17:52.593Z,43.31
2019-02-16T04:20:22.673Z,43.27
2019-02-16T04:22:52.620Z,43.21
2019-02-16T04:25:41.652Z,43.14
2019-02-16T04:28:11.715Z,43.26
2019-02-16T04:30:41.788Z,43.28
2019-02-16T04:33:30.775Z,43.13
2019-02-16T04:36:03.359Z,42.75
2019-02-16T04:38:33.323Z,42.64
2019-02-16T04:41:22.294Z,42.89
2019-02-16T04:46:53.613Z,43.35
2019-02-16T04:49:23.648Z,43.46
2019-02-16T04:52:12.291Z,43.64
2019-02-16T04:57:45.605Z,43.16
2019-02-16T05:00:34.681Z,43.59
2019-02-16T05:03:23.797Z,44.11
2019-02-16T05:05:53.765Z,44.42
2019-02-16T05:09:03.946Z,44.58
2019-02-16T05:11:33.920Z,44.62
2019-02-16T05:14:22.689Z,44.36
2019-02-16T05:16:54.528Z,44.04
2019-02-16T05:19:43.551Z,44.25
2019-02-16T05:22:13.612Z,44.34
2019-02-16T05:27:35.864Z,44.89
2019-02-16T05:30:06.375Z,45.64
2019-02-16T05:32:55.437Z,45.59
2019-02-16T05:35:25.415Z,45.44
2019-02-16T05:40:37.470Z,45.51
2019-02-16T05:43:28.263Z,45.73
2019-02-16T05:45:58.247Z,45.86
2019-02-16T05:48:47.276Z,45.87
2019-02-16T05:51:17.138Z,45.73
2019-02-16T05:53:47.176Z,45.87
2019-02-16T05:56:17.126Z,45.83
2019-02-16T05:59:08.036Z,45.80
2019-02-16T06:01:58.991Z,45.82
2019-02-16T06:04:48.197Z,45.99
2019-02-16T06:07:18.142Z,45.77
2019-02-16T06:09:48.238Z,45.55
2019-02-16T06:12:37.233Z,45.33
2019-02-16T06:18:18.665Z,45.56
2019-02-16T06:20:51.204Z,45.56
2019-02-16T06:23:21.212Z,45.60
2019-02-16T06:29:29.906Z,45.41
2019-02-16T06:38:20.697Z,46.17
2019-02-16T06:40:50.571Z,46.54
2019-02-16T06:43:20.445Z,46.88
2019-02-16T06:46:09.397Z,46.88
2019-02-16T06:48:58.220Z,47.01
2019-02-16T06:51:28.378Z,47.02
2019-02-16T06:54:17.432Z,46.39
2019-02-16T06:59:53.319Z,45.91
2019-02-16T07:05:08.697Z,43.93
2019-02-16T07:10:20.271Z,42.43
2019-02-16T07:13:03.090Z,41.79
2019-02-16T07:19:01.437Z,40.12
2019-02-16T07:24:14.001Z,39.68
2019-02-16T07:27:03.024Z,40.15
2019-02-16T07:29:32.930Z,40.59
2019-02-16T07:34:51.772Z,41.07
2019-02-16T07:37:40.523Z,41.31
2019-02-16T07:40:10.437Z,41.62
2019-02-16T07:43:01.510Z,41.81
2019-02-16T07:45:51.415Z,42.39
2019-02-16T07:51:41.430Z,42.16
2019-02-16T07:54:30.081Z,42.35
2019-02-16T07:57:39.509Z,42.44
2019-02-16T08:00:47.304Z,41.47
2019-02-16T08:06:57.321Z,41.23
2019-02-16T08:09:47.758Z,41.79
2019-02-16T08:12:56.328Z,41.40
2019-02-16T08:16:05.032Z,41.24
2019-02-16T08:19:12.873Z,41.97
2019-02-16T08:22:04.573Z,42.37
2019-02-16T08:25:12.372Z,42.38
2019-02-16T08:28:01.118Z,42.05
2019-02-16T08:31:09.832Z,41.78
2019-02-16T08:33:59.329Z,42.14
2019-02-16T08:36:51.333Z,42.24
2019-02-16T08:39:40.826Z,42.32
2019-02-16T08:42:49.397Z,42.54
2019-02-16T08:45:38.946Z,42.57
2019-02-16T08:48:47.550Z,42.51
2019-02-16T08:51:24.395Z,41.17
2019-02-16T08:54:05.827Z,40.36
2019-02-16T08:57:11.348Z,39.71
2019-02-16T09:00:07.356Z,39.87
2019-02-16T09:06:23.500Z,40.57
2019-02-16T09:09:13.006Z,39.55
2019-02-16T09:12:21.584Z,39.79
2019-02-16T09:15:12.284Z,39.58
2019-02-16T09:18:13.994Z,38.90
2019-02-16T09:21:03.527Z,37.98
2019-02-16T09:23:59.186Z,37.25
2019-02-16T09:26:44.818Z,37.26
2019-02-16T09:29:36.606Z,36.71
2019-02-16T09:32:26.071Z,36.23
2019-02-16T09:35:36.136Z,35.82
2019-02-16T09:38:49.973Z,35.95
2019-02-16T09:41:58.617Z,36.04
2019-02-16T09:44:48.250Z,35.80
2019-02-16T09:47:38.114Z,35.55
2019-02-16T09:53:37.544Z,34.43
2019-02-16T09:56:27.016Z,34.84
2019-02-16T09:59:35.660Z,36.05
2019-02-16T10:02:39.487Z,36.05
2019-02-16T10:05:48.057Z,36.59
2019-02-16T10:08:56.690Z,36.59
2019-02-16T10:11:57.059Z,36.83
2019-02-16T10:18:09.397Z,36.21
2019-02-16T10:20:59.188Z,36.27
2019-02-16T10:24:07.759Z,35.85
2019-02-16T10:27:38.984Z,35.57
2019-02-16T10:30:27.203Z,35.57
2019-02-16T10:33:35.020Z,35.36
2019-02-16T10:36:43.650Z,35.44
2019-02-16T10:39:33.260Z,35.09
2019-02-16T10:42:12.438Z,35.13
2019-02-16T10:45:02.043Z,34.98
2019-02-16T10:48:02.586Z,34.66
2019-02-16T10:54:41.161Z,34.79
2019-02-16T11:01:05.604Z,34.90
2019-02-16T11:03:54.626Z,34.10
2019-02-16T11:07:04.298Z,34.39
2019-02-16T11:09:59.569Z,34.39
2019-02-16T11:12:48.696Z,33.94
2019-02-16T11:15:30.503Z,34.23
2019-02-16T11:18:22.492Z,33.59
2019-02-16T11:21:27.946Z,33.44
2019-02-16T11:24:22.189Z,33.15
2019-02-16T11:27:11.675Z,32.59
2019-02-16T11:30:05.725Z,32.94
2019-02-16T11:32:49.163Z,33.41
2019-02-16T11:35:53.511Z,32.88
2019-02-16T11:38:44.001Z,32.75
2019-02-16T11:41:53.034Z,32.02
2019-02-16T11:44:57.811Z,31.76
2019-02-16T11:48:07.685Z,31.10
2019-02-16T11:51:21.080Z,31.24
2019-02-16T11:54:27.185Z,31.28
2019-02-16T11:57:17.446Z,31.88
2019-02-16T12:00:40.174Z,31.06
2019-02-16T12:03:12.952Z,30.83
2019-02-16T12:09:13.684Z,30.60
2019-02-16T12:12:04.319Z,30.55
2019-02-16T12:18:27.712Z,30.24
2019-02-16T12:21:18.003Z,30.43
2019-02-16T12:24:12.829Z,30.44
2019-02-16T12:39:20.045Z,30.21
2019-02-16T12:42:10.726Z,29.54
2019-02-16T12:44:52.816Z,29.63
2019-02-16T12:48:01.263Z,30.01
2019-02-16T12:51:00.225Z,29.63
2019-02-16T12:53:59.950Z,29.38
2019-02-16T12:56:42.088Z,28.73
2019-02-16T12:59:25.855Z,28.31
2019-02-16T13:02:37.171Z,28.36
2019-02-16T13:05:50.437Z,28.36
2019-02-16T13:08:43.085Z,28.63
2019-02-16T13:11:42.352Z,28.42
2019-02-16T13:15:03.167Z,29.02
2019-02-16T13:17:45.122Z,28.79
2019-02-16T13:20:56.334Z,27.48
2019-02-16T13:23:46.176Z,27.48
2019-02-16T13:26:36.622Z,27.58
2019-02-16T13:29:46.445Z,27.55
2019-02-16T13:35:55.010Z,27.56
2019-02-16T13:38:46.850Z,27.61
2019-02-16T13:41:57.171Z,27.95
2019-02-16T13:44:47.421Z,27.64
2019-02-16T13:47:41.822Z,27.44
2019-02-16T13:50:22.978Z,27.33
2019-02-16T13:54:04.543Z,27.67
2019-02-16T13:56:40.398Z,27.28
2019-02-16T14:03:09.664Z,27.16
2019-02-16T14:06:21.719Z,27.16
2019-02-16T14:09:15.709Z,26.98
2019-02-16T14:12:05.623Z,26.98
2019-02-16T14:15:11.102Z,27.70
2019-02-16T14:18:01.972Z,27.70
2019-02-16T14:20:34.371Z,27.16
2019-02-16T14:26:07.830Z,27.68
2019-02-16T14:28:41.062Z,27.61
2019-02-16T14:31:33.076Z,27.77
2019-02-16T14:34:28.471Z,28.44
2019-02-16T14:40:23.264Z,28.12
2019-02-16T14:46:38.288Z,27.86
2019-02-16T14:51:58.975Z,28.11
2019-02-16T14:54:35.405Z,28.34
2019-02-16T14:57:11.075Z,29.05
2019-02-16T14:59:43.669Z,29.05
2019-02-16T15:02:16.804Z,28.66
2019-02-16T15:04:48.585Z,28.54
2019-02-16T15:07:39.569Z,28.38
2019-02-16T15:10:14.708Z,28.60
2019-02-16T15:12:48.243Z,28.69
2019-02-16T15:15:40.159Z,28.77
2019-02-16T15:18:11.532Z,28.79
2019-02-16T15:20:43.508Z,28.47
2019-02-16T15:23:17.171Z,28.54
2019-02-16T15:26:00.513Z,28.61
2019-02-16T15:28:26.036Z,28.88
2019-02-16T15:30:57.595Z,29.03
2019-02-16T15:33:47.843Z,28.97
2019-02-16T15:36:40.723Z,28.96
2019-02-16T15:39:19.863Z,29.32
2019-02-16T15:41:52.632Z,29.51
2019-02-16T15:44:23.839Z,29.50
2019-02-16T15:46:55.706Z,29.66
2019-02-16T15:49:48.432Z,29.71
2019-02-16T15:52:22.088Z,29.62
2019-02-16T15:55:44.952Z,29.88
2019-02-16T15:58:06.195Z,30.17
2019-02-16T16:00:39.565Z,30.07
2019-02-16T16:03:30.317Z,30.22
2019-02-16T16:09:31.007Z,30.24
2019-02-16T16:12:39.902Z,30.73
2019-02-16T16:15:31.240Z,31.08
2019-02-16T16:18:37.056Z,31.28
2019-02-16T16:21:14.892Z,31.67
2019-02-16T16:24:27.006Z,32.12
2019-02-16T16:27:21.222Z,32.04
2019-02-16T16:33:54.862Z,33.05
2019-02-16T16:37:07.175Z,33.56
2019-02-16T16:40:16.326Z,33.65
2019-02-16T16:43:11.550Z,33.99
2019-02-16T16:46:02.349Z,34.43
2019-02-16T16:49:13.796Z,34.86
2019-02-16T16:52:24.424Z,35.36
2019-02-16T16:58:45.102Z,36.27
2019-02-16T17:01:39.052Z,36.37
2019-02-16T17:04:29.226Z,36.57
2019-02-16T17:13:53.574Z,37.94
2019-02-16T17:17:02.395Z,37.82
2019-02-16T17:26:16.598Z,37.72
2019-02-16T17:29:07.567Z,37.66
2019-02-16T17:32:19.571Z,37.56
2019-02-16T17:35:09.170Z,38.28
2019-02-16T17:38:18.336Z,38.21
2019-02-16T17:41:46.366Z,38.12
2019-02-16T17:44:37.845Z,38.15
2019-02-16T17:47:27.248Z,38.13
2019-02-16T17:50:07.645Z,38.13
2019-02-16T17:52:58.919Z,39.10
2019-02-16T17:55:56.742Z,39.39
2019-02-16T17:58:41.108Z,39.59
2019-02-16T18:04:58.359Z,39.89
2019-02-16T18:08:03.284Z,39.98
2019-02-16T18:10:56.639Z,40.81
2019-02-16T18:14:04.821Z,40.81
2019-02-16T18:16:55.892Z,40.25
2019-02-16T18:20:05.612Z,40.13
2019-02-16T18:26:12.993Z,39.48
2019-02-16T18:28:57.720Z,39.43
2019-02-16T18:34:45.503Z,38.27
2019-02-16T18:41:23.179Z,39.22
2019-02-16T18:47:42.935Z,38.78
2019-02-16T18:51:05.065Z,38.39
2019-02-16T18:53:44.911Z,38.80
2019-02-16T18:56:38.395Z,38.34
2019-02-16T18:59:30.523Z,37.74
2019-02-16T19:02:39.837Z,37.74
2019-02-16T19:05:30.095Z,37.89
2019-02-16T19:08:38.924Z,37.89
2019-02-16T19:11:31.259Z,37.43
2019-02-16T19:14:45.651Z,37.76
2019-02-16T19:17:35.725Z,37.76
2019-02-16T19:20:46.863Z,37.62
2019-02-16T19:23:54.148Z,37.62
2019-02-16T19:26:45.628Z,38.42
2019-02-16T19:29:35.204Z,38.60
2019-02-16T19:32:43.187Z,38.12
2019-02-16T19:35:36.377Z,38.77
2019-02-16T19:38:28.190Z,38.77
2019-02-16T19:41:09.315Z,38.46
2019-02-16T19:44:00.220Z,38.91
2019-02-16T19:46:50.520Z,39.32
2019-02-16T19:49:59.855Z,39.63
2019-02-16T19:52:52.310Z,39.75
2019-02-16T20:02:12.425Z,39.96
2019-02-16T20:05:21.860Z,40.05
2019-02-16T20:08:30.048Z,40.04
2019-02-16T20:11:40.477Z,40.07
2019-02-16T20:15:14.880Z,40.15
2019-02-16T20:18:27.693Z,40.18
2019-02-16T20:24:31.079Z,40.68
2019-02-16T20:27:54.280Z,40.76
2019-02-16T20:30:34.645Z,40.76
2019-02-16T20:33:43.557Z,40.97
2019-02-16T20:36:40.828Z,41.08
2019-02-16T20:39:34.773Z,41.23
2019-02-16T20:45:53.216Z,41.80
2019-02-16T20:49:01.377Z,41.75
2019-02-16T20:52:27.347Z,41.74
2019-02-16T20:58:25.570Z,42.07
2019-02-16T21:01:15.218Z,42.18
2019-02-16T21:04:05.989Z,42.28
2019-02-16T21:06:56.384Z,42.38
2019-02-16T21:10:20.064Z,42.62
2019-02-16T21:13:12.638Z,42.71
2019-02-16T21:16:29.326Z,42.97
2019-02-16T21:19:38.480Z,43.25
2019-02-16T21:23:03.829Z,43.83
2019-02-16T21:32:12.003Z,44.84
2019-02-16T21:35:13.690Z,45.15
2019-02-16T21:38:19.948Z,45.73
2019-02-16T21:41:02.393Z,45.73
2019-02-16T21:44:04.248Z,45.22
2019-02-16T21:50:58.479Z,45.28
2019-02-16T21:56:49.092Z,45.23
2019-02-16T22:00:00.775Z,45.65
2019-02-16T22:02:58.315Z,45.60
2019-02-16T22:05:48.538Z,45.60
2019-02-16T22:08:59.494Z,45.94
2019-02-16T22:11:50.148Z,46.07
2019-02-16T22:14:28.862Z,46.08
2019-02-16T22:17:44.881Z,46.01
2019-02-16T22:20:17.403Z,46.01
2019-02-16T22:23:09.615Z,46.11
2019-02-16T22:26:11.798Z,46.07
2019-02-16T22:29:02.854Z,46.17
2019-02-16T22:32:17.171Z,46.21
2019-02-16T22:35:26.083Z,46.33
2019-02-16T22:38:06.361Z,46.58
2019-02-16T22:40:57.970Z,46.48
2019-02-16T22:46:57.145Z,46.58
2019-02-16T22:49:47.379Z,46.54
2019-02-16T22:53:02.107Z,46.50
2019-02-16T22:58:52.843Z,46.71
2019-02-16T23:01:35.136Z,46.37
2019-02-16T23:04:25.021Z,46.44
2019-02-16T23:06:58.170Z,46.51
2019-02-16T23:18:04.454Z,46.41
2019-02-16T23:21:15.827Z,46.35
2019-02-16T23:24:05.862Z,46.31
2019-02-16T23:26:39.006Z,46.08
2019-02-16T23:29:40.743Z,45.85
2019-02-16T23:32:23.839Z,46.47
2019-02-16T23:35:13.629Z,46.47
2019-02-16T23:37:59.029Z,46.80
2019-02-16T23:40:36.382Z,46.72
2019-02-16T23:43:26.298Z,46.68
2019-02-16T23:46:15.434Z,47.04
2019-02-16T23:49:05.375Z,47.26
2019-02-16T23:51:55.211Z,47.82
2019-02-16T23:54:26.051Z,47.69
2019-02-16T23:57:10.895Z,47.41
2019-02-16T23:59:29.337Z,47.38
